sensor_id;sensor_type;location;lat;lon;timestamp;temperature;humidity
25949;DHT22;13961;51.178;4.448;2023-10-19T00:01:58;16.00;99.90
25949;DHT22;13961;51.178;4.448;2023-10-19T00:04:25;16.00;99.90
25949;DHT22;13961;51.178;4.448;2023-10-19T00:06:52;16.10;99.90
25949;DHT22;13961;51.178;4.448;2023-10-19T00:09:18;16.10;99.90
25949;DHT22;13961;51.178;4.448;2023-10-19T00:11:46;16.10;99.90
25949;DHT22;13961;51.178;4.448;2023-10-19T00:14:12;16.20;99.90
25949;DHT22;13961;51.178;4.448;2023-10-19T00:16:45;16.20;99.90
25949;DHT22;13961;51.178;4.448;2023-10-19T00:19:26;16.20;99.90
25949;DHT22;13961;51.178;4.448;2023-10-19T00:21:54;16.20;99.90
25949;DHT22;13961;51.178;4.448;2023-10-19T00:24:34;16.20;99.90
25949;DHT22;13961;51.178;4.448;2023-10-19T00:27:00;16.30;99.90
25949;DHT22;13961;51.178;4.448;2023-10-19T00:29:33;16.30;99.90
25949;DHT22;13961;51.178;4.448;2023-10-19T00:32:05;16.30;99.90
25949;DHT22;13961;51.178;4.448;2023-10-19T00:34:32;16.30;99.90
25949;DHT22;13961;51.178;4.448;2023-10-19T00:36:59;16.20;99.90
25949;DHT22;13961;51.178;4.448;2023-10-19T00:39:34;16.10;99.90
25949;DHT22;13961;51.178;4.448;2023-10-19T00:42:08;16.10;99.90
25949;DHT22;13961;51.178;4.448;2023-10-19T00:44:34;16.10;99.90
25949;DHT22;13961;51.178;4.448;2023-10-19T00:47:08;16.10;99.90
25949;DHT22;13961;51.178;4.448;2023-10-19T00:49:54;16.10;99.90
25949;DHT22;13961;51.178;4.448;2023-10-19T00:52:20;16.10;99.90
25949;DHT22;13961;51.178;4.448;2023-10-19T00:54:50;16.10;99.90
25949;DHT22;13961;51.178;4.448;2023-10-19T00:57:20;16.30;99.90
25949;DHT22;13961;51.178;4.448;2023-10-19T00:59:48;16.30;99.90
25949;DHT22;13961;51.178;4.448;2023-10-19T01:02:19;16.30;99.90
25949;DHT22;13961;51.178;4.448;2023-10-19T01:04:56;16.10;99.90
25949;DHT22;13961;51.178;4.448;2023-10-19T01:07:28;16.30;99.90
25949;DHT22;13961;51.178;4.448;2023-10-19T01:09:59;16.20;99.90
25949;DHT22;13961;51.178;4.448;2023-10-19T01:12:26;16.20;99.90
25949;DHT22;13961;51.178;4.448;2023-10-19T01:15:11;16.20;99.90
25949;DHT22;13961;51.178;4.448;2023-10-19T01:17:48;16.40;99.90
25949;DHT22;13961;51.178;4.448;2023-10-19T01:20:20;16.30;99.90
25949;DHT22;13961;51.178;4.448;2023-10-19T01:28:30;16.40;99.90
25949;DHT22;13961;51.178;4.448;2023-10-19T01:31:09;16.40;99.90
25949;DHT22;13961;51.178;4.448;2023-10-19T01:33:40;16.40;99.90
25949;DHT22;13961;51.178;4.448;2023-10-19T01:36:08;16.40;99.90
25949;DHT22;13961;51.178;4.448;2023-10-19T01:38:38;16.30;99.90
25949;DHT22;13961;51.178;4.448;2023-10-19T01:41:05;16.20;99.90
25949;DHT22;13961;51.178;4.448;2023-10-19T01:43:39;16.20;99.90
25949;DHT22;13961;51.178;4.448;2023-10-19T01:46:05;16.30;99.90
25949;DHT22;13961;51.178;4.448;2023-10-19T01:48:40;16.20;99.90
25949;DHT22;13961;51.178;4.448;2023-10-19T01:51:08;16.40;99.90
25949;DHT22;13961;51.178;4.448;2023-10-19T01:53:40;16.30;99.90
25949;DHT22;13961;51.178;4.448;2023-10-19T01:56:09;16.40;99.90
25949;DHT22;13961;51.178;4.448;2023-10-19T01:58:41;16.40;99.90
25949;DHT22;13961;51.178;4.448;2023-10-19T02:01:07;16.40;99.90
25949;DHT22;13961;51.178;4.448;2023-10-19T02:03:43;16.40;99.90
25949;DHT22;13961;51.178;4.448;2023-10-19T02:06:10;16.40;99.90
25949;DHT22;13961;51.178;4.448;2023-10-19T02:08:49;16.40;99.90
25949;DHT22;13961;51.178;4.448;2023-10-19T02:11:22;16.40;99.90
25949;DHT22;13961;51.178;4.448;2023-10-19T02:13:51;16.40;99.90
25949;DHT22;13961;51.178;4.448;2023-10-19T02:16:18;16.40;99.90
25949;DHT22;13961;51.178;4.448;2023-10-19T02:18:50;16.30;99.90
25949;DHT22;13961;51.178;4.448;2023-10-19T02:21:17;16.30;99.90
25949;DHT22;13961;51.178;4.448;2023-10-19T02:24:03;16.20;99.90
25949;DHT22;13961;51.178;4.448;2023-10-19T02:26:30;16.30;99.90
25949;DHT22;13961;51.178;4.448;2023-10-19T02:28:57;16.30;99.90
25949;DHT22;13961;51.178;4.448;2023-10-19T02:31:24;16.30;99.90
25949;DHT22;13961;51.178;4.448;2023-10-19T02:33:54;16.20;99.90
25949;DHT22;13961;51.178;4.448;2023-10-19T02:36:27;16.20;99.90
25949;DHT22;13961;51.178;4.448;2023-10-19T02:39:04;16.30;99.90
25949;DHT22;13961;51.178;4.448;2023-10-19T02:41:59;16.30;99.90
25949;DHT22;13961;51.178;4.448;2023-10-19T02:44:26;16.40;99.90
25949;DHT22;13961;51.178;4.448;2023-10-19T02:46:56;16.30;99.90
25949;DHT22;13961;51.178;4.448;2023-10-19T02:49:25;16.10;99.90
25949;DHT22;13961;51.178;4.448;2023-10-19T02:51:52;16.00;99.90
25949;DHT22;13961;51.178;4.448;2023-10-19T02:54:21;16.00;99.90
25949;DHT22;13961;51.178;4.448;2023-10-19T02:56:52;16.00;99.90
25949;DHT22;13961;51.178;4.448;2023-10-19T02:59:20;16.00;99.90
25949;DHT22;13961;51.178;4.448;2023-10-19T03:02:00;15.90;99.90
25949;DHT22;13961;51.178;4.448;2023-10-19T03:04:43;15.80;99.90
25949;DHT22;13961;51.178;4.448;2023-10-19T03:07:10;15.70;99.90
25949;DHT22;13961;51.178;4.448;2023-10-19T03:09:38;15.80;99.90
25949;DHT22;13961;51.178;4.448;2023-10-19T03:12:05;15.70;99.90
25949;DHT22;13961;51.178;4.448;2023-10-19T03:14:35;15.60;99.90
25949;DHT22;13961;51.178;4.448;2023-10-19T03:17:03;15.60;99.90
25949;DHT22;13961;51.178;4.448;2023-10-19T03:19:29;15.60;99.90
25949;DHT22;13961;51.178;4.448;2023-10-19T03:21:55;15.50;99.90
25949;DHT22;13961;51.178;4.448;2023-10-19T03:24:21;15.60;99.90
25949;DHT22;13961;51.178;4.448;2023-10-19T03:27:07;15.60;99.90
25949;DHT22;13961;51.178;4.448;2023-10-19T03:29:52;15.60;99.90
25949;DHT22;13961;51.178;4.448;2023-10-19T03:32:22;15.80;99.90
25949;DHT22;13961;51.178;4.448;2023-10-19T03:34:52;15.80;99.90
25949;DHT22;13961;51.178;4.448;2023-10-19T03:37:25;15.80;99.90
25949;DHT22;13961;51.178;4.448;2023-10-19T03:39:51;15.80;99.90
25949;DHT22;13961;51.178;4.448;2023-10-19T03:42:17;15.70;99.90
25949;DHT22;13961;51.178;4.448;2023-10-19T03:44:43;15.80;99.90
25949;DHT22;13961;51.178;4.448;2023-10-19T03:47:19;15.80;99.90
25949;DHT22;13961;51.178;4.448;2023-10-19T03:49:46;15.90;99.90
25949;DHT22;13961;51.178;4.448;2023-10-19T03:52:13;15.90;99.90
25949;DHT22;13961;51.178;4.448;2023-10-19T03:54:39;16.00;99.90
25949;DHT22;13961;51.178;4.448;2023-10-19T03:57:06;16.10;99.90
25949;DHT22;13961;51.178;4.448;2023-10-19T03:59:39;16.10;99.90
25949;DHT22;13961;51.178;4.448;2023-10-19T04:02:04;16.00;99.90
25949;DHT22;13961;51.178;4.448;2023-10-19T04:04:36;16.10;99.90
25949;DHT22;13961;51.178;4.448;2023-10-19T04:07:04;16.10;99.90
25949;DHT22;13961;51.178;4.448;2023-10-19T04:09:38;16.10;99.90
25949;DHT22;13961;51.178;4.448;2023-10-19T04:12:23;16.00;99.90
25949;DHT22;13961;51.178;4.448;2023-10-19T04:14:49;15.90;99.90
25949;DHT22;13961;51.178;4.448;2023-10-19T04:17:15;15.90;99.90
25949;DHT22;13961;51.178;4.448;2023-10-19T04:19:42;16.00;99.90
25949;DHT22;13961;51.178;4.448;2023-10-19T04:22:09;16.10;99.90
25949;DHT22;13961;51.178;4.448;2023-10-19T04:24:47;16.00;99.90
25949;DHT22;13961;51.178;4.448;2023-10-19T04:27:13;16.10;99.90
25949;DHT22;13961;51.178;4.448;2023-10-19T04:29:38;16.10;99.90
25949;DHT22;13961;51.178;4.448;2023-10-19T04:32:06;16.00;99.90
25949;DHT22;13961;51.178;4.448;2023-10-19T04:34:32;15.90;99.90
25949;DHT22;13961;51.178;4.448;2023-10-19T04:36:58;16.00;99.90
25949;DHT22;13961;51.178;4.448;2023-10-19T04:39:23;16.00;99.90
25949;DHT22;13961;51.178;4.448;2023-10-19T04:41:50;16.20;99.90
25949;DHT22;13961;51.178;4.448;2023-10-19T04:44:15;16.30;99.90
25949;DHT22;13961;51.178;4.448;2023-10-19T04:46:42;16.30;99.90
25949;DHT22;13961;51.178;4.448;2023-10-19T04:49:08;16.40;99.90
25949;DHT22;13961;51.178;4.448;2023-10-19T04:51:34;16.20;99.90
25949;DHT22;13961;51.178;4.448;2023-10-19T04:54:04;16.20;99.90
25949;DHT22;13961;51.178;4.448;2023-10-19T04:56:31;16.20;99.90
25949;DHT22;13961;51.178;4.448;2023-10-19T04:58:57;16.10;99.90
25949;DHT22;13961;51.178;4.448;2023-10-19T05:01:23;16.10;99.90
25949;DHT22;13961;51.178;4.448;2023-10-19T05:03:48;16.10;99.90
25949;DHT22;13961;51.178;4.448;2023-10-19T05:06:14;16.10;99.90
25949;DHT22;13961;51.178;4.448;2023-10-19T05:08:40;16.20;99.90
25949;DHT22;13961;51.178;4.448;2023-10-19T05:11:05;16.20;99.90
25949;DHT22;13961;51.178;4.448;2023-10-19T05:13:31;16.10;99.90
25949;DHT22;13961;51.178;4.448;2023-10-19T05:15:58;16.10;99.90
25949;DHT22;13961;51.178;4.448;2023-10-19T05:18:26;16.10;99.90
25949;DHT22;13961;51.178;4.448;2023-10-19T05:20:52;16.10;99.90
25949;DHT22;13961;51.178;4.448;2023-10-19T05:23:24;16.10;99.90
25949;DHT22;13961;51.178;4.448;2023-10-19T05:26:00;16.20;99.90
25949;DHT22;13961;51.178;4.448;2023-10-19T05:28:25;16.20;99.90
25949;DHT22;13961;51.178;4.448;2023-10-19T05:30:51;16.20;99.90
25949;DHT22;13961;51.178;4.448;2023-10-19T05:33:17;16.30;99.90
25949;DHT22;13961;51.178;4.448;2023-10-19T05:35:49;16.30;99.90
25949;DHT22;13961;51.178;4.448;2023-10-19T05:38:16;16.30;99.90
25949;DHT22;13961;51.178;4.448;2023-10-19T05:40:42;16.30;99.90
25949;DHT22;13961;51.178;4.448;2023-10-19T05:43:09;16.30;99.90
25949;DHT22;13961;51.178;4.448;2023-10-19T05:45:34;16.30;99.90
25949;DHT22;13961;51.178;4.448;2023-10-19T05:48:02;16.10;99.90
25949;DHT22;13961;51.178;4.448;2023-10-19T05:50:29;16.20;99.90
25949;DHT22;13961;51.178;4.448;2023-10-19T05:52:55;16.10;99.90
25949;DHT22;13961;51.178;4.448;2023-10-19T05:55:21;16.20;99.90
25949;DHT22;13961;51.178;4.448;2023-10-19T05:57:47;16.10;99.90
25949;DHT22;13961;51.178;4.448;2023-10-19T06:00:13;16.20;99.90
25949;DHT22;13961;51.178;4.448;2023-10-19T06:02:44;16.10;99.90
25949;DHT22;13961;51.178;4.448;2023-10-19T06:05:10;16.10;99.90
25949;DHT22;13961;51.178;4.448;2023-10-19T06:07:36;16.00;99.90
25949;DHT22;13961;51.178;4.448;2023-10-19T06:10:03;16.00;99.90
25949;DHT22;13961;51.178;4.448;2023-10-19T06:12:32;16.10;99.90
25949;DHT22;13961;51.178;4.448;2023-10-19T06:14:58;16.00;99.90
25949;DHT22;13961;51.178;4.448;2023-10-19T06:17:26;16.00;99.90
25949;DHT22;13961;51.178;4.448;2023-10-19T06:19:53;16.10;99.90
25949;DHT22;13961;51.178;4.448;2023-10-19T06:22:19;16.30;99.90
25949;DHT22;13961;51.178;4.448;2023-10-19T06:24:45;16.40;99.90
25949;DHT22;13961;51.178;4.448;2023-10-19T06:27:10;16.40;99.90
25949;DHT22;13961;51.178;4.448;2023-10-19T06:29:36;16.40;99.90
25949;DHT22;13961;51.178;4.448;2023-10-19T06:32:02;16.40;99.90
25949;DHT22;13961;51.178;4.448;2023-10-19T06:34:28;16.20;99.90
25949;DHT22;13961;51.178;4.448;2023-10-19T06:36:54;16.20;99.90
25949;DHT22;13961;51.178;4.448;2023-10-19T06:39:20;16.10;99.90
25949;DHT22;13961;51.178;4.448;2023-10-19T06:41:47;16.20;99.90
25949;DHT22;13961;51.178;4.448;2023-10-19T06:44:13;16.20;99.90
25949;DHT22;13961;51.178;4.448;2023-10-19T06:46:39;16.30;99.90
25949;DHT22;13961;51.178;4.448;2023-10-19T06:49:05;16.30;99.90
25949;DHT22;13961;51.178;4.448;2023-10-19T06:51:31;16.30;99.90
25949;DHT22;13961;51.178;4.448;2023-10-19T06:53:59;16.30;99.90
25949;DHT22;13961;51.178;4.448;2023-10-19T06:56:25;16.40;99.90
25949;DHT22;13961;51.178;4.448;2023-10-19T06:58:51;16.40;99.90
25949;DHT22;13961;51.178;4.448;2023-10-19T07:01:17;16.40;99.90
25949;DHT22;13961;51.178;4.448;2023-10-19T07:03:44;16.40;99.90
25949;DHT22;13961;51.178;4.448;2023-10-19T07:06:10;16.50;99.90
25949;DHT22;13961;51.178;4.448;2023-10-19T07:08:40;16.50;99.90
25949;DHT22;13961;51.178;4.448;2023-10-19T07:11:08;16.50;99.90
25949;DHT22;13961;51.178;4.448;2023-10-19T07:13:34;16.80;99.90
25949;DHT22;13961;51.178;4.448;2023-10-19T07:16:00;17.20;99.90
25949;DHT22;13961;51.178;4.448;2023-10-19T07:18:26;17.50;99.90
25949;DHT22;13961;51.178;4.448;2023-10-19T07:20:53;17.80;99.90
25949;DHT22;13961;51.178;4.448;2023-10-19T07:23:26;18.00;99.90
25949;DHT22;13961;51.178;4.448;2023-10-19T07:25:54;18.60;99.90
25949;DHT22;13961;51.178;4.448;2023-10-19T07:28:22;18.80;99.90
25949;DHT22;13961;51.178;4.448;2023-10-19T07:30:48;19.20;99.90
25949;DHT22;13961;51.178;4.448;2023-10-19T07:33:14;19.50;99.90
25949;DHT22;13961;51.178;4.448;2023-10-19T07:35:46;19.80;99.90
25949;DHT22;13961;51.178;4.448;2023-10-19T07:38:13;20.00;99.90
25949;DHT22;13961;51.178;4.448;2023-10-19T07:40:40;20.30;99.90
25949;DHT22;13961;51.178;4.448;2023-10-19T07:43:06;20.40;99.90
25949;DHT22;13961;51.178;4.448;2023-10-19T07:45:33;20.70;99.90
25949;DHT22;13961;51.178;4.448;2023-10-19T07:48:00;20.60;99.90
25949;DHT22;13961;51.178;4.448;2023-10-19T07:50:35;20.70;99.90
25949;DHT22;13961;51.178;4.448;2023-10-19T07:53:02;20.70;99.90
25949;DHT22;13961;51.178;4.448;2023-10-19T07:55:28;20.60;99.90
25949;DHT22;13961;51.178;4.448;2023-10-19T07:57:54;19.90;99.90
25949;DHT22;13961;51.178;4.448;2023-10-19T08:00:20;19.20;99.90
25949;DHT22;13961;51.178;4.448;2023-10-19T08:02:46;18.80;99.90
25949;DHT22;13961;51.178;4.448;2023-10-19T08:05:13;18.70;99.90
25949;DHT22;13961;51.178;4.448;2023-10-19T08:07:40;18.70;99.90
25949;DHT22;13961;51.178;4.448;2023-10-19T08:10:09;19.10;99.90
25949;DHT22;13961;51.178;4.448;2023-10-19T08:12:39;19.90;99.90
25949;DHT22;13961;51.178;4.448;2023-10-19T08:15:12;20.30;99.90
25949;DHT22;13961;51.178;4.448;2023-10-19T08:17:39;20.00;99.90
25949;DHT22;13961;51.178;4.448;2023-10-19T08:20:06;19.70;99.90
25949;DHT22;13961;51.178;4.448;2023-10-19T08:22:36;19.00;99.90
25949;DHT22;13961;51.178;4.448;2023-10-19T08:25:05;18.70;99.90
25949;DHT22;13961;51.178;4.448;2023-10-19T08:27:41;18.50;99.90
25949;DHT22;13961;51.178;4.448;2023-10-19T08:30:11;18.40;99.90
25949;DHT22;13961;51.178;4.448;2023-10-19T08:32:40;18.30;99.90
25949;DHT22;13961;51.178;4.448;2023-10-19T08:35:08;18.20;99.90
25949;DHT22;13961;51.178;4.448;2023-10-19T08:37:39;18.10;99.90
25949;DHT22;13961;51.178;4.448;2023-10-19T08:40:10;18.10;99.90
25949;DHT22;13961;51.178;4.448;2023-10-19T08:42:44;18.20;99.90
25949;DHT22;13961;51.178;4.448;2023-10-19T08:45:11;18.30;99.90
25949;DHT22;13961;51.178;4.448;2023-10-19T08:48:00;18.50;99.90
25949;DHT22;13961;51.178;4.448;2023-10-19T08:50:33;18.60;99.90
25949;DHT22;13961;51.178;4.448;2023-10-19T08:53:02;18.60;99.90
25949;DHT22;13961;51.178;4.448;2023-10-19T08:55:31;18.60;99.90
25949;DHT22;13961;51.178;4.448;2023-10-19T08:57:57;18.50;99.90
25949;DHT22;13961;51.178;4.448;2023-10-19T09:00:26;18.40;99.90
25949;DHT22;13961;51.178;4.448;2023-10-19T09:02:53;18.20;99.90
25949;DHT22;13961;51.178;4.448;2023-10-19T09:05:20;18.50;99.90
25949;DHT22;13961;51.178;4.448;2023-10-19T09:07:48;18.60;99.90
25949;DHT22;13961;51.178;4.448;2023-10-19T09:12:59;18.50;99.90
25949;DHT22;13961;51.178;4.448;2023-10-19T09:15:27;18.40;99.90
25949;DHT22;13961;51.178;4.448;2023-10-19T09:17:54;18.40;99.90
25949;DHT22;13961;51.178;4.448;2023-10-19T09:20:21;18.50;99.90
25949;DHT22;13961;51.178;4.448;2023-10-19T09:22:55;18.50;99.90
25949;DHT22;13961;51.178;4.448;2023-10-19T09:25:23;18.30;99.90
25949;DHT22;13961;51.178;4.448;2023-10-19T09:27:50;18.20;99.90
25949;DHT22;13961;51.178;4.448;2023-10-19T09:30:17;18.20;99.90
25949;DHT22;13961;51.178;4.448;2023-10-19T09:32:48;18.40;99.90
25949;DHT22;13961;51.178;4.448;2023-10-19T09:35:15;18.40;99.90
25949;DHT22;13961;51.178;4.448;2023-10-19T09:37:44;18.50;99.90
25949;DHT22;13961;51.178;4.448;2023-10-19T09:40:11;18.50;99.90
25949;DHT22;13961;51.178;4.448;2023-10-19T09:42:42;18.80;99.90
25949;DHT22;13961;51.178;4.448;2023-10-19T09:45:12;18.80;99.90
25949;DHT22;13961;51.178;4.448;2023-10-19T09:47:45;18.80;99.90
25949;DHT22;13961;51.178;4.448;2023-10-19T09:50:14;18.90;99.90
25949;DHT22;13961;51.178;4.448;2023-10-19T09:52:41;18.80;99.90
25949;DHT22;13961;51.178;4.448;2023-10-19T09:55:15;18.40;99.90
25949;DHT22;13961;51.178;4.448;2023-10-19T09:58:06;18.40;99.90
25949;DHT22;13961;51.178;4.448;2023-10-19T10:00:35;18.30;99.90
25949;DHT22;13961;51.178;4.448;2023-10-19T10:03:01;18.50;99.90
25949;DHT22;13961;51.178;4.448;2023-10-19T10:10:47;18.50;99.90
25949;DHT22;13961;51.178;4.448;2023-10-19T10:16:00;18.40;99.90
25949;DHT22;13961;51.178;4.448;2023-10-19T10:18:27;18.70;99.90
25949;DHT22;13961;51.178;4.448;2023-10-19T10:21:20;18.50;99.90
25949;DHT22;13961;51.178;4.448;2023-10-19T10:23:56;18.50;99.90
25949;DHT22;13961;51.178;4.448;2023-10-19T10:26:30;18.30;99.90
25949;DHT22;13961;51.178;4.448;2023-10-19T10:29:14;18.20;99.90
25949;DHT22;13961;51.178;4.448;2023-10-19T10:31:46;18.30;99.90
25949;DHT22;13961;51.178;4.448;2023-10-19T10:37:04;18.20;99.90
25949;DHT22;13961;51.178;4.448;2023-10-19T10:39:31;18.40;99.90
25949;DHT22;13961;51.178;4.448;2023-10-19T10:42:02;18.30;99.90
25949;DHT22;13961;51.178;4.448;2023-10-19T10:44:42;18.50;99.90
25949;DHT22;13961;51.178;4.448;2023-10-19T10:47:16;18.70;99.90
25949;DHT22;13961;51.178;4.448;2023-10-19T10:52:31;19.00;99.90
25949;DHT22;13961;51.178;4.448;2023-10-19T10:54:58;19.00;99.90
25949;DHT22;13961;51.178;4.448;2023-10-19T10:57:31;18.90;99.90
25949;DHT22;13961;51.178;4.448;2023-10-19T11:00:04;18.90;99.90
25949;DHT22;13961;51.178;4.448;2023-10-19T11:02:37;19.00;99.90
25949;DHT22;13961;51.178;4.448;2023-10-19T11:05:10;19.00;99.90
25949;DHT22;13961;51.178;4.448;2023-10-19T11:10:30;18.90;99.90
25949;DHT22;13961;51.178;4.448;2023-10-19T11:13:02;19.10;99.90
25949;DHT22;13961;51.178;4.448;2023-10-19T11:15:28;19.20;99.90
25949;DHT22;13961;51.178;4.448;2023-10-19T11:17:54;19.30;99.90
25949;DHT22;13961;51.178;4.448;2023-10-19T11:20:26;19.30;99.90
25949;DHT22;13961;51.178;4.448;2023-10-19T11:22:56;19.20;99.90
25949;DHT22;13961;51.178;4.448;2023-10-19T11:25:24;19.20;99.90
25949;DHT22;13961;51.178;4.448;2023-10-19T11:27:51;19.00;99.90
25949;DHT22;13961;51.178;4.448;2023-10-19T11:30:27;18.90;99.90
25949;DHT22;13961;51.178;4.448;2023-10-19T11:32:55;18.90;99.90
25949;DHT22;13961;51.178;4.448;2023-10-19T11:35:26;18.60;99.90
25949;DHT22;13961;51.178;4.448;2023-10-19T11:37:54;18.40;99.90
25949;DHT22;13961;51.178;4.448;2023-10-19T11:40:21;18.60;99.90
25949;DHT22;13961;51.178;4.448;2023-10-19T11:42:48;18.50;99.90
25949;DHT22;13961;51.178;4.448;2023-10-19T11:45:14;18.60;99.90
25949;DHT22;13961;51.178;4.448;2023-10-19T11:47:39;18.50;99.90
25949;DHT22;13961;51.178;4.448;2023-10-19T11:50:07;18.20;99.90
25949;DHT22;13961;51.178;4.448;2023-10-19T11:52:34;18.20;99.90
25949;DHT22;13961;51.178;4.448;2023-10-19T11:55:03;18.10;99.90
25949;DHT22;13961;51.178;4.448;2023-10-19T11:57:31;18.00;99.90
25949;DHT22;13961;51.178;4.448;2023-10-19T12:00:02;17.80;99.90
25949;DHT22;13961;51.178;4.448;2023-10-19T12:02:36;18.00;99.90
25949;DHT22;13961;51.178;4.448;2023-10-19T12:05:04;18.00;99.90
25949;DHT22;13961;51.178;4.448;2023-10-19T12:07:30;18.20;99.90
25949;DHT22;13961;51.178;4.448;2023-10-19T12:09:59;18.50;99.90
25949;DHT22;13961;51.178;4.448;2023-10-19T12:12:25;18.30;99.90
25949;DHT22;13961;51.178;4.448;2023-10-19T12:14:50;18.10;99.90
25949;DHT22;13961;51.178;4.448;2023-10-19T12:17:20;18.30;99.90
25949;DHT22;13961;51.178;4.448;2023-10-19T12:19:47;18.50;99.90
25949;DHT22;13961;51.178;4.448;2023-10-19T12:22:15;18.70;99.90
25949;DHT22;13961;51.178;4.448;2023-10-19T12:24:42;18.70;99.90
25949;DHT22;13961;51.178;4.448;2023-10-19T12:27:09;18.80;99.90
25949;DHT22;13961;51.178;4.448;2023-10-19T12:29:37;18.50;99.90
25949;DHT22;13961;51.178;4.448;2023-10-19T12:32:06;18.60;99.90
25949;DHT22;13961;51.178;4.448;2023-10-19T12:34:32;18.50;99.90
25949;DHT22;13961;51.178;4.448;2023-10-19T12:36:59;18.70;99.90
25949;DHT22;13961;51.178;4.448;2023-10-19T12:39:26;18.50;99.90
25949;DHT22;13961;51.178;4.448;2023-10-19T12:42:03;18.40;99.90
25949;DHT22;13961;51.178;4.448;2023-10-19T12:44:31;18.50;99.90
25949;DHT22;13961;51.178;4.448;2023-10-19T12:47:05;18.20;99.90
25949;DHT22;13961;51.178;4.448;2023-10-19T12:49:35;18.00;99.90
25949;DHT22;13961;51.178;4.448;2023-10-19T12:52:02;17.90;99.90
25949;DHT22;13961;51.178;4.448;2023-10-19T12:54:34;17.80;99.90
25949;DHT22;13961;51.178;4.448;2023-10-19T12:57:02;17.80;99.90
25949;DHT22;13961;51.178;4.448;2023-10-19T12:59:31;17.70;99.90
25949;DHT22;13961;51.178;4.448;2023-10-19T13:01:57;17.70;99.90
25949;DHT22;13961;51.178;4.448;2023-10-19T13:04:25;17.70;99.90
25949;DHT22;13961;51.178;4.448;2023-10-19T13:06:51;17.70;99.90
25949;DHT22;13961;51.178;4.448;2023-10-19T13:09:17;17.90;99.90
25949;DHT22;13961;51.178;4.448;2023-10-19T13:11:50;18.10;99.90
25949;DHT22;13961;51.178;4.448;2023-10-19T13:14:18;18.20;99.90
25949;DHT22;13961;51.178;4.448;2023-10-19T13:16:44;18.30;99.90
25949;DHT22;13961;51.178;4.448;2023-10-19T13:19:10;18.40;99.90
25949;DHT22;13961;51.178;4.448;2023-10-19T13:21:42;18.70;99.90
25949;DHT22;13961;51.178;4.448;2023-10-19T13:24:08;18.90;99.90
25949;DHT22;13961;51.178;4.448;2023-10-19T13:26:35;18.90;99.90
25949;DHT22;13961;51.178;4.448;2023-10-19T13:29:02;19.00;99.90
25949;DHT22;13961;51.178;4.448;2023-10-19T13:31:27;19.20;99.90
25949;DHT22;13961;51.178;4.448;2023-10-19T13:33:53;19.40;99.90
25949;DHT22;13961;51.178;4.448;2023-10-19T13:36:21;19.60;99.90
25949;DHT22;13961;51.178;4.448;2023-10-19T13:38:46;19.60;99.90
25949;DHT22;13961;51.178;4.448;2023-10-19T13:41:12;19.40;99.90
25949;DHT22;13961;51.178;4.448;2023-10-19T13:43:39;19.10;99.90
25949;DHT22;13961;51.178;4.448;2023-10-19T13:46:05;19.00;99.90
25949;DHT22;13961;51.178;4.448;2023-10-19T13:48:31;19.10;99.90
25949;DHT22;13961;51.178;4.448;2023-10-19T13:50:57;19.00;99.90
25949;DHT22;13961;51.178;4.448;2023-10-19T13:53:31;19.00;99.90
25949;DHT22;13961;51.178;4.448;2023-10-19T13:55:56;19.10;99.90
25949;DHT22;13961;51.178;4.448;2023-10-19T13:58:22;19.00;99.90
25949;DHT22;13961;51.178;4.448;2023-10-19T14:00:48;18.90;99.90
25949;DHT22;13961;51.178;4.448;2023-10-19T14:03:14;18.90;99.90
25949;DHT22;13961;51.178;4.448;2023-10-19T14:05:43;19.00;99.90
25949;DHT22;13961;51.178;4.448;2023-10-19T14:08:13;18.90;99.90
25949;DHT22;13961;51.178;4.448;2023-10-19T14:10:39;19.00;99.90
25949;DHT22;13961;51.178;4.448;2023-10-19T14:13:10;18.90;99.90
25949;DHT22;13961;51.178;4.448;2023-10-19T14:15:40;19.00;99.90
25949;DHT22;13961;51.178;4.448;2023-10-19T14:18:06;19.00;99.90
25949;DHT22;13961;51.178;4.448;2023-10-19T14:20:32;19.20;99.90
25949;DHT22;13961;51.178;4.448;2023-10-19T14:23:00;19.20;99.90
25949;DHT22;13961;51.178;4.448;2023-10-19T14:25:26;19.10;99.90
25949;DHT22;13961;51.178;4.448;2023-10-19T14:27:53;19.20;99.90
25949;DHT22;13961;51.178;4.448;2023-10-19T14:30:22;19.40;99.90
25949;DHT22;13961;51.178;4.448;2023-10-19T14:32:49;19.60;99.90
25949;DHT22;13961;51.178;4.448;2023-10-19T14:35:17;19.50;99.90
25949;DHT22;13961;51.178;4.448;2023-10-19T14:37:48;19.30;99.90
25949;DHT22;13961;51.178;4.448;2023-10-19T14:40:20;19.40;99.90
25949;DHT22;13961;51.178;4.448;2023-10-19T14:42:47;19.40;99.90
25949;DHT22;13961;51.178;4.448;2023-10-19T14:45:16;19.40;99.90
25949;DHT22;13961;51.178;4.448;2023-10-19T14:47:49;19.20;99.90
25949;DHT22;13961;51.178;4.448;2023-10-19T14:50:17;19.20;99.90
25949;DHT22;13961;51.178;4.448;2023-10-19T14:52:49;19.20;99.90
25949;DHT22;13961;51.178;4.448;2023-10-19T14:55:15;19.30;99.90
25949;DHT22;13961;51.178;4.448;2023-10-19T14:57:46;19.40;99.90
25949;DHT22;13961;51.178;4.448;2023-10-19T15:00:17;19.50;99.90
25949;DHT22;13961;51.178;4.448;2023-10-19T15:02:47;19.50;99.90
25949;DHT22;13961;51.178;4.448;2023-10-19T15:05:13;19.50;99.90
25949;DHT22;13961;51.178;4.448;2023-10-19T15:07:44;19.30;99.90
25949;DHT22;13961;51.178;4.448;2023-10-19T15:10:11;19.20;99.90
25949;DHT22;13961;51.178;4.448;2023-10-19T15:12:39;19.20;99.90
25949;DHT22;13961;51.178;4.448;2023-10-19T15:15:08;19.20;99.90
25949;DHT22;13961;51.178;4.448;2023-10-19T15:17:38;19.20;99.90
25949;DHT22;13961;51.178;4.448;2023-10-19T15:20:10;19.20;99.90
25949;DHT22;13961;51.178;4.448;2023-10-19T15:22:36;19.10;99.90
25949;DHT22;13961;51.178;4.448;2023-10-19T15:25:04;19.20;99.90
25949;DHT22;13961;51.178;4.448;2023-10-19T15:27:33;19.00;99.90
25949;DHT22;13961;51.178;4.448;2023-10-19T15:30:00;19.00;99.90
25949;DHT22;13961;51.178;4.448;2023-10-19T15:32:25;18.90;99.90
25949;DHT22;13961;51.178;4.448;2023-10-19T15:34:53;19.00;99.90
25949;DHT22;13961;51.178;4.448;2023-10-19T15:37:20;19.00;99.90
25949;DHT22;13961;51.178;4.448;2023-10-19T15:39:51;18.90;99.90
25949;DHT22;13961;51.178;4.448;2023-10-19T15:42:18;18.90;99.90
25949;DHT22;13961;51.178;4.448;2023-10-19T15:44:45;19.00;99.90
25949;DHT22;13961;51.178;4.448;2023-10-19T15:47:13;19.10;99.90
25949;DHT22;13961;51.178;4.448;2023-10-19T15:49:54;19.20;99.90
25949;DHT22;13961;51.178;4.448;2023-10-19T15:52:24;18.90;99.90
25949;DHT22;13961;51.178;4.448;2023-10-19T15:54:51;18.70;99.90
25949;DHT22;13961;51.178;4.448;2023-10-19T15:57:19;18.60;99.90
25949;DHT22;13961;51.178;4.448;2023-10-19T15:59:45;18.70;99.90
25949;DHT22;13961;51.178;4.448;2023-10-19T16:02:12;18.70;99.90
25949;DHT22;13961;51.178;4.448;2023-10-19T16:04:43;18.60;99.90
25949;DHT22;13961;51.178;4.448;2023-10-19T16:07:10;18.40;99.90